createdAt,value
2022-10-24T00:03:43.141Z,6.65
2022-10-24T00:08:45.663Z,8.00
2022-10-24T00:13:47.965Z,6.90
2022-10-24T00:18:49.760Z,7.80
2022-10-24T00:23:51.599Z,6.70
2022-10-24T00:28:53.505Z,7.57
2022-10-24T00:33:56.726Z,7.35
2022-10-24T00:38:58.514Z,7.38
2022-10-24T00:44:16.355Z,7.40
2022-10-24T00:49:21.562Z,7.40
2022-10-24T00:54:23.620Z,7.28
2022-10-24T00:59:27.891Z,6.97
2022-10-24T01:04:29.789Z,8.02
2022-10-24T01:09:59.379Z,7.00
2022-10-24T01:15:27.799Z,7.28
2022-10-24T01:20:53.978Z,7.40
2022-10-24T01:26:38.735Z,7.47
2022-10-24T01:31:53.543Z,7.10
2022-10-24T01:37:07.527Z,7.10
2022-10-24T01:42:12.969Z,7.38
2022-10-24T01:47:19.391Z,6.22
2022-10-24T01:52:23.045Z,6.65
2022-10-24T01:57:33.012Z,5.78
2022-10-24T02:02:43.812Z,6.80
2022-10-24T02:07:51.283Z,5.82
2022-10-24T02:12:59.879Z,6.70
2022-10-24T02:18:02.647Z,6.05
2022-10-24T02:23:30.903Z,6.20
2022-10-24T02:28:41.376Z,6.22
2022-10-24T02:33:44.833Z,7.30
2022-10-24T02:38:48.787Z,6.55
2022-10-24T02:43:52.229Z,7.00
2022-10-24T02:48:58.153Z,6.85
2022-10-24T02:54:01.028Z,7.05
2022-10-24T02:59:02.834Z,6.78
2022-10-24T03:04:05.096Z,6.88
2022-10-24T03:09:06.866Z,6.93
2022-10-24T03:14:08.670Z,6.70
2022-10-24T03:19:10.424Z,7.63
2022-10-24T03:24:12.274Z,7.70
2022-10-24T03:29:14.211Z,8.30
2022-10-24T03:34:16.119Z,7.10
2022-10-24T03:39:17.887Z,8.00
2022-10-24T03:44:19.687Z,7.18
2022-10-24T03:49:21.602Z,9.10
2022-10-24T03:54:23.455Z,7.72
2022-10-24T03:59:25.235Z,8.18
2022-10-24T04:04:27.085Z,7.95
2022-10-24T04:09:28.832Z,7.05
2022-10-24T04:14:30.586Z,6.45
2022-10-24T04:19:32.927Z,6.95
2022-10-24T04:24:34.991Z,6.93
2022-10-24T04:29:36.969Z,7.97
2022-10-24T04:34:38.711Z,8.05
2022-10-24T04:39:40.573Z,8.27
2022-10-24T04:44:42.297Z,7.20
2022-10-24T04:49:44.318Z,8.13
2022-10-24T04:54:46.092Z,8.43
2022-10-24T04:59:47.884Z,8.70
2022-10-24T05:04:49.619Z,13.23
2022-10-24T05:09:51.371Z,15.15
2022-10-24T05:14:53.116Z,11.90
2022-10-24T05:19:54.868Z,12.38
2022-10-24T05:24:56.754Z,9.88
2022-10-24T05:29:58.644Z,8.50
2022-10-24T05:35:00.545Z,8.25
2022-10-24T05:40:02.393Z,8.32
2022-10-24T05:45:08.771Z,8.20
2022-10-24T05:50:10.699Z,7.65
2022-10-24T05:55:14.498Z,7.28
2022-10-24T06:00:19.417Z,7.47
2022-10-24T06:05:21.244Z,8.93
2022-10-24T06:10:23.054Z,8.50
2022-10-24T06:15:25.040Z,10.20
2022-10-24T06:20:26.779Z,12.18
2022-10-24T06:25:28.563Z,11.55
2022-10-24T06:30:30.347Z,9.35
2022-10-24T06:35:32.090Z,10.70
2022-10-24T06:40:34.216Z,10.57
2022-10-24T06:45:38.175Z,9.85
2022-10-24T06:50:40.655Z,9.75
2022-10-24T06:55:42.388Z,15.65
2022-10-24T07:00:44.221Z,14.50
2022-10-24T07:05:45.975Z,12.55
2022-10-24T07:10:49.058Z,16.67
2022-10-24T07:15:54.352Z,17.20
2022-10-24T07:21:00.883Z,17.75
2022-10-24T07:26:08.619Z,14.82
2022-10-24T07:31:13.588Z,14.65
2022-10-24T07:36:18.031Z,14.40
2022-10-24T07:41:19.984Z,13.57
2022-10-24T07:46:22.148Z,12.85
2022-10-24T07:51:24.009Z,10.48
2022-10-24T07:56:26.137Z,11.45
2022-10-24T08:01:29.238Z,9.10
2022-10-24T08:06:31.528Z,8.68
2022-10-24T08:11:33.273Z,8.60
2022-10-24T08:16:35.034Z,8.70
2022-10-24T08:21:36.914Z,7.82
2022-10-24T08:26:41.378Z,7.88
2022-10-24T08:31:43.717Z,8.00
2022-10-24T08:36:45.883Z,7.55
2022-10-24T08:41:59.358Z,6.93
2022-10-24T08:47:05.273Z,7.10
2022-10-24T08:52:27.478Z,6.20
2022-10-24T09:02:39.739Z,5.47
2022-10-24T09:07:46.920Z,6.05
2022-10-24T09:12:49.023Z,6.20
2022-10-24T09:17:51.287Z,6.18
2022-10-24T09:22:55.519Z,6.78
2022-10-24T09:28:03.711Z,6.85
2022-10-24T09:33:33.019Z,5.45
2022-10-24T09:38:37.208Z,5.97
2022-10-24T09:43:45.950Z,6.32
2022-10-24T09:54:07.387Z,6.53
2022-10-24T09:59:33.479Z,6.85
2022-10-24T10:04:35.284Z,8.10
2022-10-24T10:09:42.238Z,7.35
2022-10-24T10:14:44.874Z,6.93
2022-10-24T10:19:48.225Z,6.53
2022-10-24T10:24:50.319Z,5.80
2022-10-24T10:30:12.401Z,5.90
2022-10-24T10:35:33.240Z,6.15
2022-10-24T10:40:45.219Z,5.75
2022-10-24T10:45:48.168Z,5.90
2022-10-24T10:51:04.404Z,6.35
2022-10-24T10:56:17.508Z,5.90
2022-10-24T11:01:43.071Z,5.78
2022-10-24T11:07:09.788Z,5.93
2022-10-24T11:12:25.402Z,6.53
2022-10-24T11:17:35.243Z,6.38
2022-10-24T11:22:43.066Z,5.60
2022-10-24T11:27:55.049Z,7.65
2022-10-24T11:33:03.414Z,6.88
2022-10-24T11:38:20.053Z,7.10
2022-10-24T11:43:30.336Z,7.13
2022-10-24T11:48:38.104Z,7.50
2022-10-24T11:54:21.057Z,8.52
2022-10-24T11:59:25.827Z,7.75
2022-10-24T12:05:03.527Z,8.15
2022-10-24T12:10:29.201Z,7.72
2022-10-24T12:15:41.471Z,7.28
2022-10-24T12:20:43.527Z,7.00
2022-10-24T12:25:47.410Z,7.47
2022-10-24T12:31:15.075Z,8.15
2022-10-24T12:36:56.996Z,7.47
2022-10-24T12:41:59.669Z,8.63
2022-10-24T12:47:22.457Z,9.02
2022-10-24T12:52:33.171Z,7.80
2022-10-24T12:57:45.264Z,7.65
2022-10-24T13:03:13.705Z,7.78
2022-10-24T13:08:40.495Z,7.22
2022-10-24T13:14:07.208Z,7.97
2022-10-24T13:19:17.235Z,7.35
2022-10-24T13:24:21.654Z,7.93
2022-10-24T13:29:23.306Z,8.45
2022-10-24T13:34:52.650Z,9.15
2022-10-24T13:40:08.402Z,10.60
2022-10-24T13:45:46.945Z,9.95
2022-10-24T13:51:01.047Z,10.30
2022-10-24T13:56:10.572Z,9.82
2022-10-24T14:01:27.234Z,10.18
2022-10-24T14:06:33.983Z,10.65
2022-10-24T14:11:42.325Z,10.10
2022-10-24T14:16:44.120Z,9.60
2022-10-24T14:21:46.250Z,9.90
2022-10-24T14:26:51.572Z,9.55
2022-10-24T14:32:07.973Z,9.32
2022-10-24T14:37:16.356Z,9.05
2022-10-24T14:42:18.557Z,9.82
2022-10-24T14:47:36.335Z,9.65
2022-10-24T14:52:39.036Z,10.45
2022-10-24T14:57:48.915Z,9.52
2022-10-24T15:02:53.544Z,9.25
2022-10-24T15:08:20.583Z,9.00
2022-10-24T15:13:21.865Z,9.15
2022-10-24T15:18:32.154Z,8.50
2022-10-24T15:23:45.556Z,9.23
2022-10-24T15:28:56.829Z,9.00
2022-10-24T15:33:58.732Z,11.85
2022-10-24T15:39:07.308Z,10.13
2022-10-24T15:44:20.847Z,11.27
2022-10-24T15:49:22.882Z,12.05
2022-10-24T15:54:27.028Z,14.90
2022-10-24T15:59:28.812Z,17.42
2022-10-24T16:04:34.054Z,13.88
2022-10-24T16:09:35.796Z,15.10
2022-10-24T16:14:38.743Z,14.80
2022-10-24T16:19:40.447Z,13.27
2022-10-24T16:24:42.170Z,11.52
2022-10-24T16:29:43.878Z,12.32
2022-10-24T16:34:48.966Z,11.20
2022-10-24T16:39:50.882Z,10.02
2022-10-24T16:44:52.808Z,9.05
2022-10-24T16:49:57.965Z,8.88
2022-10-24T16:54:59.871Z,9.48
2022-10-24T17:00:01.649Z,9.25
2022-10-24T17:05:03.592Z,9.50
2022-10-24T17:10:05.641Z,9.15
2022-10-24T17:15:08.376Z,8.45
2022-10-24T17:20:12.114Z,8.40
2022-10-24T17:25:20.959Z,8.15
2022-10-24T17:35:30.491Z,8.15
2022-10-24T17:40:47.157Z,7.28
2022-10-24T17:45:49.994Z,7.35
2022-10-24T17:50:55.407Z,7.85
2022-10-24T17:55:57.265Z,7.03
2022-10-24T18:00:59.292Z,7.40
2022-10-24T18:06:03.265Z,7.00
2022-10-24T18:11:06.320Z,6.70
2022-10-24T18:16:12.901Z,6.80
2022-10-24T18:21:24.718Z,7.13
2022-10-24T18:26:27.809Z,6.93
2022-10-24T18:31:30.494Z,7.57
2022-10-24T18:36:32.204Z,7.30
2022-10-24T18:41:47.706Z,6.80
2022-10-24T18:46:51.168Z,7.30
2022-10-24T18:52:01.951Z,7.72
2022-10-24T18:57:24.775Z,7.90
2022-10-24T19:02:35.089Z,7.90
2022-10-24T19:07:37.003Z,7.95
2022-10-24T19:12:39.350Z,8.07
2022-10-24T19:17:41.759Z,8.32
2022-10-24T19:22:43.966Z,9.00
2022-10-24T19:27:46.272Z,9.05
2022-10-24T19:32:48.614Z,8.32
2022-10-24T19:37:50.564Z,8.85
2022-10-24T19:42:53.240Z,8.45
2022-10-24T19:47:55.582Z,9.25
2022-10-24T19:52:57.491Z,9.23
2022-10-24T19:57:59.211Z,9.48
2022-10-24T20:03:00.963Z,9.40
2022-10-24T20:08:02.908Z,9.88
2022-10-24T20:13:04.628Z,9.88
2022-10-24T20:18:06.451Z,9.77
2022-10-24T20:23:08.201Z,9.93
2022-10-24T20:28:10.125Z,10.18
2022-10-24T20:33:14.640Z,9.32
2022-10-24T20:38:16.606Z,9.82
2022-10-24T20:43:18.344Z,9.05
2022-10-24T20:48:20.115Z,9.75
2022-10-24T20:53:21.850Z,9.32
2022-10-24T20:58:23.592Z,9.70
2022-10-24T21:03:25.362Z,9.82
2022-10-24T21:08:27.108Z,9.75
2022-10-24T21:13:28.841Z,9.88
2022-10-24T21:18:30.583Z,9.85
2022-10-24T21:23:32.313Z,9.55
2022-10-24T21:28:35.108Z,8.93
2022-10-24T21:33:37.300Z,9.55
2022-10-24T21:38:39.215Z,9.13
2022-10-24T21:43:42.257Z,10.20
2022-10-24T21:48:44.681Z,9.07
2022-10-24T21:53:52.245Z,9.25
2022-10-24T21:58:56.592Z,8.95
2022-10-24T22:03:59.729Z,9.30
2022-10-24T22:09:02.344Z,9.40
2022-10-24T22:14:05.424Z,9.27
2022-10-24T22:19:07.376Z,9.45
2022-10-24T22:24:21.381Z,8.23
2022-10-24T22:29:24.352Z,9.07
2022-10-24T22:34:26.522Z,8.77
2022-10-24T22:39:28.799Z,8.23
2022-10-24T22:44:30.684Z,8.63
2022-10-24T22:49:38.167Z,8.70
2022-10-24T22:54:40.312Z,9.02
2022-10-24T22:59:42.786Z,9.63
2022-10-24T23:05:04.548Z,8.82
2022-10-24T23:10:11.050Z,8.80
2022-10-24T23:15:14.765Z,9.18
2022-10-24T23:20:35.824Z,9.43
2022-10-24T23:25:37.863Z,9.73
2022-10-24T23:30:39.932Z,9.32
2022-10-24T23:35:43.387Z,9.73
2022-10-24T23:40:45.307Z,10.00
2022-10-24T23:45:55.679Z,8.90
2022-10-24T23:51:07.112Z,9.52
2022-10-24T23:56:12.377Z,9.10
